createdAt,value
2022-11-01T00:01:49.245Z,100817.44
2022-11-01T00:04:17.324Z,100814.16
2022-11-01T00:06:45.325Z,100821.06
2022-11-01T00:09:14.007Z,100827.13
2022-11-01T00:11:42.139Z,100830.22
2022-11-01T00:14:15.482Z,100825.97
2022-11-01T00:16:46.606Z,100831.41
2022-11-01T00:19:14.993Z,100822.16
2022-11-01T00:21:43.053Z,100829.78
2022-11-01T00:24:11.129Z,100837.78
2022-11-01T00:26:40.729Z,100836.63
2022-11-01T00:29:21.214Z,100826.78
2022-11-01T00:31:55.127Z,100825.94
2022-11-01T00:34:23.236Z,100818.47
2022-11-01T00:36:51.318Z,100824.84
2022-11-01T00:39:19.490Z,100820.69
2022-11-01T00:41:47.449Z,100827.69
2022-11-01T00:44:17.898Z,100826.69
2022-11-01T00:46:45.823Z,100821.78
2022-11-01T00:49:28.671Z,100817.75
2022-11-01T00:51:56.667Z,100815.38
2022-11-01T00:54:24.724Z,100807.00
2022-11-01T00:56:53.960Z,100804.81
2022-11-01T00:59:23.519Z,100808.13
2022-11-01T01:01:51.641Z,100811.81
2022-11-01T01:04:30.474Z,100800.38
2022-11-01T01:06:58.455Z,100807.56
2022-11-01T01:09:26.408Z,100810.59
2022-11-01T01:11:54.639Z,100809.75
2022-11-01T01:14:26.495Z,100797.41
2022-11-01T01:16:57.740Z,100798.44
2022-11-01T01:19:30.009Z,100801.28
2022-11-01T01:21:58.155Z,100794.84
2022-11-01T01:24:26.487Z,100793.88
2022-11-01T01:26:54.480Z,100788.09
2022-11-01T01:29:23.835Z,100788.63
2022-11-01T01:31:52.722Z,100781.50
2022-11-01T01:34:20.980Z,100788.69
2022-11-01T01:36:49.127Z,100794.38
2022-11-01T01:39:23.819Z,100789.75
2022-11-01T01:41:57.719Z,100785.44
2022-11-01T01:45:15.174Z,100783.31
2022-11-01T01:47:49.929Z,100784.31
2022-11-01T01:50:23.271Z,100781.00
2022-11-01T01:52:54.825Z,100777.50
2022-11-01T01:55:27.942Z,100782.66
2022-11-01T01:57:58.672Z,100777.50
2022-11-01T02:00:28.310Z,100779.34
2022-11-01T02:02:59.668Z,100782.19
2022-11-01T02:05:37.767Z,100776.16
2022-11-01T02:08:07.603Z,100774.50
2022-11-01T02:10:36.282Z,100777.34
2022-11-01T02:13:12.015Z,100770.34
2022-11-01T02:15:55.765Z,100771.72
2022-11-01T02:21:59.680Z,100770.94
2022-11-01T02:24:46.305Z,100765.59
2022-11-01T02:27:21.698Z,100765.97
2022-11-01T02:30:09.990Z,100761.47
2022-11-01T02:33:02.106Z,100758.63
2022-11-01T02:35:41.075Z,100764.16
2022-11-01T02:38:11.343Z,100761.47
2022-11-01T02:40:46.365Z,100764.50
2022-11-01T02:43:19.889Z,100764.34
2022-11-01T02:45:50.937Z,100763.91
2022-11-01T02:48:22.987Z,100757.91
2022-11-01T02:50:56.778Z,100762.75
2022-11-01T02:53:25.216Z,100763.09
2022-11-01T02:55:53.617Z,100757.94
2022-11-01T02:58:24.330Z,100764.09
2022-11-01T03:00:52.733Z,100759.16
2022-11-01T03:03:25.062Z,100759.50
2022-11-01T03:06:03.858Z,100771.91
2022-11-01T03:08:38.967Z,100767.78
2022-11-01T03:11:11.527Z,100763.19
2022-11-01T03:13:54.297Z,100763.34
2022-11-01T03:16:29.510Z,100769.66
2022-11-01T03:19:07.844Z,100762.34
2022-11-01T03:21:41.922Z,100763.00
2022-11-01T03:24:19.971Z,100763.84
2022-11-01T03:26:55.591Z,100759.50
2022-11-01T03:29:27.492Z,100763.00
2022-11-01T03:31:57.104Z,100762.00
2022-11-01T03:34:27.119Z,100759.34
2022-11-01T03:37:01.531Z,100752.38
2022-11-01T03:39:39.937Z,100751.91
2022-11-01T03:42:11.380Z,100753.91
2022-11-01T03:44:43.809Z,100759.41
2022-11-01T03:47:13.370Z,100751.59
2022-11-01T03:49:42.835Z,100755.06
2022-11-01T03:52:11.042Z,100755.06
2022-11-01T03:54:39.716Z,100755.25
2022-11-01T03:57:08.449Z,100745.75
2022-11-01T03:59:38.211Z,100747.47
2022-11-01T04:02:06.722Z,100748.13
2022-11-01T04:04:35.036Z,100747.84
2022-11-01T04:07:05.893Z,100746.16
2022-11-01T04:09:33.937Z,100746.38
2022-11-01T04:12:02.570Z,100742.38
2022-11-01T04:14:48.135Z,100737.59
2022-11-01T04:17:33.717Z,100738.09
2022-11-01T04:20:19.116Z,100735.25
2022-11-01T04:22:49.309Z,100739.09
2022-11-01T04:25:17.727Z,100733.28
2022-11-01T04:27:46.629Z,100738.09
2022-11-01T04:30:14.866Z,100735.28
2022-11-01T04:32:44.318Z,100727.66
2022-11-01T04:35:12.674Z,100727.31
2022-11-01T04:37:40.848Z,100735.44
2022-11-01T04:40:13.334Z,100732.63
2022-11-01T04:42:42.032Z,100739.13
2022-11-01T04:45:11.282Z,100737.59
2022-11-01T04:47:39.304Z,100729.97
2022-11-01T04:50:07.747Z,100729.47
2022-11-01T04:52:35.770Z,100738.09
2022-11-01T04:55:03.834Z,100732.78
2022-11-01T04:57:38.842Z,100733.09
2022-11-01T05:00:11.352Z,100734.78
2022-11-01T05:02:40.798Z,100728.31
2022-11-01T05:05:10.940Z,100730.63
2022-11-01T05:07:39.388Z,100727.81
2022-11-01T05:10:09.003Z,100721.19
2022-11-01T05:12:38.798Z,100722.66
2022-11-01T05:15:08.359Z,100724.00
2022-11-01T05:17:36.390Z,100731.31
2022-11-01T05:20:04.623Z,100723.97
2022-11-01T05:22:32.773Z,100724.66
2022-11-01T05:25:01.080Z,100718.19
2022-11-01T05:27:29.296Z,100718.16
2022-11-01T05:29:58.628Z,100719.16
2022-11-01T05:32:27.180Z,100724.44
2022-11-01T05:34:55.109Z,100721.78
2022-11-01T05:37:27.151Z,100720.09
2022-11-01T05:39:56.190Z,100713.13
2022-11-01T05:42:25.237Z,100715.91
2022-11-01T05:44:53.187Z,100711.59
2022-11-01T05:47:22.749Z,100711.88
2022-11-01T05:49:50.727Z,100714.38
2022-11-01T05:52:18.798Z,100711.38
2022-11-01T05:54:46.723Z,100712.72
2022-11-01T05:57:15.097Z,100717.50
2022-11-01T05:59:43.111Z,100709.84
2022-11-01T06:02:11.220Z,100716.81
2022-11-01T06:04:40.586Z,100716.28
2022-11-01T06:07:08.566Z,100713.44
2022-11-01T06:09:36.503Z,100718.94
2022-11-01T06:12:05.643Z,100717.59
2022-11-01T06:17:02.856Z,100710.06
2022-11-01T06:19:30.814Z,100714.88
2022-11-01T06:22:00.948Z,100709.38
2022-11-01T06:24:28.975Z,100710.66
2022-11-01T06:26:56.969Z,100702.34
2022-11-01T06:29:25.307Z,100702.00
2022-11-01T06:31:53.279Z,100706.78
2022-11-01T06:34:23.045Z,100706.25
2022-11-01T06:36:51.051Z,100719.41
2022-11-01T06:39:20.411Z,100710.88
2022-11-01T06:41:48.398Z,100713.03
2022-11-01T06:44:16.378Z,100715.69
2022-11-01T06:46:44.489Z,100713.88
2022-11-01T06:49:17.957Z,100703.84
2022-11-01T06:51:47.412Z,100699.16
2022-11-01T06:54:15.606Z,100697.16
2022-11-01T06:56:48.295Z,100699.16
2022-11-01T06:59:17.755Z,100711.31
2022-11-01T07:01:46.194Z,100707.28
2022-11-01T07:04:14.388Z,100699.97
2022-11-01T07:06:42.399Z,100693.25
2022-11-01T07:09:10.611Z,100701.06
2022-11-01T07:11:38.619Z,100691.88
2022-11-01T07:14:08.023Z,100699.53
2022-11-01T07:16:36.018Z,100699.53
2022-11-01T07:19:04.021Z,100698.34
2022-11-01T07:21:31.970Z,100698.34
2022-11-01T07:23:59.965Z,100698.97
2022-11-01T07:26:29.263Z,100703.69
2022-11-01T07:28:57.803Z,100705.53
2022-11-01T07:31:27.383Z,100693.38
2022-11-01T07:33:55.386Z,100697.69
2022-11-01T07:36:24.119Z,100701.03
2022-11-01T07:38:52.170Z,100698.72
2022-11-01T07:41:20.218Z,100700.38
2022-11-01T07:43:48.236Z,100697.31
2022-11-01T07:46:17.207Z,100691.81
2022-11-01T07:48:46.554Z,100695.97
2022-11-01T07:51:14.603Z,100687.44
2022-11-01T07:53:42.559Z,100686.25
2022-11-01T07:56:10.678Z,100687.53
2022-11-01T07:58:38.687Z,100685.19
2022-11-01T08:01:06.882Z,100691.00
2022-11-01T08:03:35.046Z,100686.34
2022-11-01T08:06:04.580Z,100682.19
2022-11-01T08:08:32.623Z,100689.00
2022-11-01T08:11:01.561Z,100692.28
2022-11-01T08:13:30.029Z,100685.78
2022-11-01T08:16:01.578Z,100686.25
2022-11-01T08:18:29.782Z,100690.41
2022-11-01T08:20:59.107Z,100685.41
2022-11-01T08:23:28.731Z,100683.22
2022-11-01T08:25:58.687Z,100678.53
2022-11-01T08:28:28.579Z,100676.97
2022-11-01T08:30:56.569Z,100669.44
2022-11-01T08:33:24.654Z,100660.25
2022-11-01T08:35:53.107Z,100665.03
2022-11-01T08:38:21.095Z,100667.03
2022-11-01T08:40:50.450Z,100661.09
2022-11-01T08:43:18.770Z,100648.75
2022-11-01T08:45:56.360Z,100646.09
2022-11-01T08:48:24.394Z,100651.50
2022-11-01T08:50:52.921Z,100651.63
2022-11-01T08:53:21.467Z,100649.50
2022-11-01T08:55:55.933Z,100649.56
2022-11-01T08:58:24.082Z,100637.88
2022-11-01T09:00:52.079Z,100641.78
2022-11-01T09:03:20.102Z,100637.25
2022-11-01T09:05:48.750Z,100635.59
2022-11-01T09:08:16.812Z,100633.19
2022-11-01T09:10:44.808Z,100635.13
2022-11-01T09:13:14.179Z,100634.19
2022-11-01T09:15:42.231Z,100619.66
2022-11-01T09:18:10.718Z,100618.69
2022-11-01T09:20:39.194Z,100619.94
2022-11-01T09:23:07.377Z,100618.50
2022-11-01T09:25:35.575Z,100609.31
2022-11-01T09:28:03.772Z,100609.94
2022-11-01T09:30:33.359Z,100602.22
2022-11-01T09:33:05.424Z,100605.97
2022-11-01T09:38:19.273Z,100600.00
2022-11-01T09:40:51.424Z,100596.81
2022-11-01T09:43:23.456Z,100592.44
2022-11-01T09:45:54.932Z,100597.91
2022-11-01T09:48:25.620Z,100593.88
2022-11-01T09:51:00.957Z,100579.72
2022-11-01T09:53:32.403Z,100585.22
2022-11-01T09:56:10.295Z,100570.03
2022-11-01T09:58:54.527Z,100574.03
2022-11-01T10:01:41.446Z,100570.81
2022-11-01T10:04:35.338Z,100563.63
2022-11-01T10:07:10.629Z,100558.97
2022-11-01T10:09:48.610Z,100554.66
2022-11-01T10:12:36.655Z,100559.22
2022-11-01T10:15:30.021Z,100556.78
2022-11-01T10:18:05.313Z,100555.53
2022-11-01T10:20:38.340Z,100552.25
2022-11-01T10:23:07.009Z,100546.50
2022-11-01T10:25:40.813Z,100543.00
2022-11-01T10:28:17.096Z,100547.56
2022-11-01T10:30:49.366Z,100538.50
2022-11-01T10:33:27.170Z,100535.22
2022-11-01T10:35:59.337Z,100529.06
2022-11-01T10:39:10.308Z,100532.34
2022-11-01T10:41:28.545Z,100524.34
2022-11-01T10:43:59.364Z,100523.94
2022-11-01T10:46:32.935Z,100522.09
2022-11-01T10:49:06.408Z,100510.31
2022-11-01T10:51:37.973Z,100502.91
2022-11-01T10:54:16.245Z,100506.22
2022-11-01T10:56:49.215Z,100507.91
2022-11-01T10:59:20.101Z,100503.78
2022-11-01T11:01:50.880Z,100498.84
2022-11-01T11:04:23.549Z,100491.38
2022-11-01T11:06:52.639Z,100492.66
2022-11-01T11:09:28.662Z,100489.53
2022-11-01T11:12:01.227Z,100491.34
2022-11-01T11:14:33.062Z,100482.66
2022-11-01T11:17:02.126Z,100483.25
2022-11-01T11:19:38.500Z,100482.63
2022-11-01T11:22:09.539Z,100481.81
2022-11-01T11:24:39.532Z,100468.59
2022-11-01T11:27:14.776Z,100470.22
2022-11-01T11:29:49.311Z,100466.06
2022-11-01T11:32:21.348Z,100462.34
2022-11-01T11:34:58.440Z,100455.50
2022-11-01T11:37:29.478Z,100463.75
2022-11-01T11:40:07.046Z,100457.34
2022-11-01T11:42:35.578Z,100455.69
2022-11-01T11:45:18.670Z,100459.16
2022-11-01T11:47:48.132Z,100458.50
2022-11-01T11:50:35.171Z,100453.31
2022-11-01T11:53:07.900Z,100446.69
2022-11-01T11:55:42.437Z,100439.44
2022-11-01T11:58:26.478Z,100436.78
2022-11-01T12:01:01.006Z,100420.44
2022-11-01T12:03:30.121Z,100431.59
2022-11-01T12:06:03.190Z,100434.22
2022-11-01T12:08:37.998Z,100434.63
2022-11-01T12:11:06.651Z,100437.47
2022-11-01T12:13:37.155Z,100422.78
2022-11-01T12:16:16.169Z,100422.13
2022-11-01T12:18:53.494Z,100429.38
2022-11-01T12:21:32.277Z,100426.81
2022-11-01T12:24:15.456Z,100427.66
2022-11-01T12:26:45.496Z,100418.75
2022-11-01T12:29:26.490Z,100418.63
2022-11-01T12:31:56.545Z,100417.38
2022-11-01T12:34:27.094Z,100418.84
2022-11-01T12:37:02.035Z,100414.13
2022-11-01T12:39:45.162Z,100413.53
2022-11-01T12:42:19.930Z,100405.84
2022-11-01T12:44:53.358Z,100390.16
2022-11-01T12:47:26.362Z,100390.16
2022-11-01T12:50:02.116Z,100396.59
2022-11-01T12:52:41.144Z,100396.59
2022-11-01T12:55:20.763Z,100396.38
2022-11-01T12:57:50.044Z,100399.06
2022-11-01T13:00:21.550Z,100393.06
2022-11-01T13:03:08.998Z,100383.97
2022-11-01T13:05:50.746Z,100389.56
2022-11-01T13:08:32.210Z,100384.84
2022-11-01T13:11:10.075Z,100382.16
2022-11-01T13:13:46.557Z,100378.25
2022-11-01T13:16:20.466Z,100384.84
2022-11-01T13:18:53.263Z,100383.63
2022-11-01T13:21:34.378Z,100370.88
2022-11-01T13:24:26.252Z,100368.41
2022-11-01T13:27:00.177Z,100362.91
2022-11-01T13:29:39.559Z,100360.25
2022-11-01T13:32:13.781Z,100356.56
2022-11-01T13:34:51.008Z,100344.00
2022-11-01T13:37:32.826Z,100340.09
2022-11-01T13:40:18.523Z,100327.13
2022-11-01T13:42:51.505Z,100324.06
2022-11-01T13:45:50.187Z,100332.38
2022-11-01T13:48:39.117Z,100324.91
2022-11-01T13:51:33.786Z,100323.25
2022-11-01T13:54:07.628Z,100313.59
2022-11-01T13:56:41.513Z,100318.13
2022-11-01T13:59:16.808Z,100323.72
2022-11-01T14:01:45.089Z,100314.22
2022-11-01T14:04:40.241Z,100327.66
2022-11-01T14:07:17.776Z,100324.19
2022-11-01T14:09:47.676Z,100323.41
2022-11-01T14:12:36.051Z,100321.16
2022-11-01T14:15:24.924Z,100318.69
2022-11-01T14:18:03.818Z,100319.31
2022-11-01T14:20:41.410Z,100322.41
2022-11-01T14:23:54.901Z,100320.19
2022-11-01T14:26:49.788Z,100316.50
2022-11-01T14:29:36.642Z,100316.91
2022-11-01T14:32:05.243Z,100304.53
2022-11-01T14:34:37.115Z,100297.75
2022-11-01T14:37:22.362Z,100302.88
2022-11-01T14:40:01.998Z,100301.06
2022-11-01T14:42:41.479Z,100289.53
2022-11-01T14:45:29.041Z,100296.13
2022-11-01T14:48:01.770Z,100273.22
2022-11-01T14:50:45.021Z,100283.94
2022-11-01T14:53:23.721Z,100289.75
2022-11-01T14:55:52.138Z,100280.25
2022-11-01T14:58:23.175Z,100272.84
2022-11-01T15:00:55.292Z,100272.03
2022-11-01T15:03:24.442Z,100282.34
2022-11-01T15:05:54.652Z,100278.00
2022-11-01T15:08:34.006Z,100278.00
2022-11-01T15:11:04.569Z,100281.13
2022-11-01T15:13:38.496Z,100278.66
2022-11-01T15:16:15.267Z,100278.03
2022-11-01T15:18:48.568Z,100267.75
2022-11-01T15:21:31.071Z,100267.34
2022-11-01T15:24:03.834Z,100249.41
2022-11-01T15:26:34.256Z,100232.94
2022-11-01T15:29:05.617Z,100241.81
2022-11-01T15:31:50.384Z,100256.84
2022-11-01T15:34:24.013Z,100269.63
2022-11-01T15:36:52.244Z,100264.06
2022-11-01T15:39:29.062Z,100266.75
2022-11-01T15:41:58.008Z,100263.25
2022-11-01T15:44:28.840Z,100257.06
2022-11-01T15:47:00.698Z,100259.94
2022-11-01T15:49:33.518Z,100258.09
2022-11-01T15:52:05.476Z,100266.53
2022-11-01T15:54:41.252Z,100259.75
2022-11-01T15:57:12.581Z,100257.88
2022-11-01T15:59:50.584Z,100256.84
2022-11-01T16:02:43.376Z,100242.63
2022-11-01T16:05:17.320Z,100243.69
2022-11-01T16:07:46.120Z,100252.94
2022-11-01T16:10:27.243Z,100251.75
2022-11-01T16:12:56.235Z,100243.28
2022-11-01T16:15:27.307Z,100246.59
2022-11-01T16:18:00.160Z,100241.44
2022-11-01T16:20:35.175Z,100243.72
2022-11-01T16:23:07.253Z,100254.41
2022-11-01T16:25:37.436Z,100250.91
2022-11-01T16:28:28.478Z,100252.56
2022-11-01T16:30:57.941Z,100239.78
2022-11-01T16:33:45.342Z,100243.50
2022-11-01T16:36:36.796Z,100245.34
2022-11-01T16:39:26.984Z,100235.06
2022-11-01T16:41:55.152Z,100239.38
2022-11-01T16:44:23.455Z,100245.34
2022-11-01T16:46:52.110Z,100247.63
2022-11-01T16:49:24.041Z,100257.09
2022-11-01T16:51:54.628Z,100258.13
2022-11-01T16:54:22.779Z,100270.50
2022-11-01T16:56:53.324Z,100265.13
2022-11-01T16:59:28.926Z,100274.59
2022-11-01T17:01:58.831Z,100268.41
2022-11-01T17:04:31.877Z,100274.59
2022-11-01T17:06:59.807Z,100273.75
2022-11-01T17:09:30.777Z,100268.19
2022-11-01T17:12:01.788Z,100277.06
2022-11-01T17:17:17.084Z,100273.34
2022-11-01T17:19:50.355Z,100275.81
2022-11-01T17:22:21.329Z,100276.22
2022-11-01T17:24:49.640Z,100282.41
2022-11-01T17:27:26.093Z,100280.34
2022-11-01T17:29:54.138Z,100285.88
2022-11-01T17:32:22.148Z,100285.25
2022-11-01T17:34:51.489Z,100282.16
2022-11-01T17:37:19.527Z,100279.28
2022-11-01T17:39:47.560Z,100278.84
2022-11-01T17:42:15.562Z,100275.53
2022-11-01T17:44:43.543Z,100276.34
2022-11-01T17:47:15.645Z,100277.38
2022-11-01T17:49:43.786Z,100274.69
2022-11-01T17:52:13.694Z,100267.91
2022-11-01T17:54:41.777Z,100268.72
2022-11-01T17:57:09.723Z,100272.59
2022-11-01T17:59:37.754Z,100270.34
2022-11-01T18:02:05.857Z,100269.31
2022-11-01T18:04:35.780Z,100262.50
2022-11-01T18:07:07.992Z,100260.22
2022-11-01T18:09:37.943Z,100261.03
2022-11-01T18:12:13.749Z,100261.69
2022-11-01T18:15:08.945Z,100255.91
2022-11-01T18:17:49.010Z,100249.50
2022-11-01T18:20:31.737Z,100249.72
2022-11-01T18:23:05.046Z,100248.28
2022-11-01T18:25:40.560Z,100239.63
2022-11-01T18:28:14.319Z,100249.53
2022-11-01T18:30:43.069Z,100245.19
2022-11-01T18:33:19.847Z,100240.22
2022-11-01T18:36:16.709Z,100240.22
2022-11-01T18:38:50.291Z,100234.03
2022-11-01T18:41:22.189Z,100234.25
2022-11-01T18:43:56.827Z,100229.94
2022-11-01T18:46:27.484Z,100233.66
2022-11-01T18:49:00.067Z,100232.63
2022-11-01T18:51:30.232Z,100228.53
2022-11-01T18:54:13.518Z,100232.03
2022-11-01T18:56:51.087Z,100223.16
2022-11-01T18:59:27.575Z,100225.63
2022-11-01T19:02:00.418Z,100237.75
2022-11-01T19:04:32.157Z,100226.22
2022-11-01T19:07:09.756Z,100226.44
2022-11-01T19:09:40.471Z,100228.88
2022-11-01T19:12:16.698Z,100227.03
2022-11-01T19:14:46.335Z,100224.97
2022-11-01T19:17:23.791Z,100215.06
2022-11-01T19:19:52.700Z,100206.84
2022-11-01T19:22:33.025Z,100210.16
2022-11-01T19:25:02.978Z,100209.09
2022-11-01T19:27:32.340Z,100202.91
2022-11-01T19:30:00.978Z,100205.59
2022-11-01T19:32:29.253Z,100211.38
2022-11-01T19:34:57.448Z,100218.19
2022-11-01T19:37:33.077Z,100212.00
2022-11-01T19:40:13.580Z,100207.66
2022-11-01T19:42:43.993Z,100200.25
2022-11-01T19:45:29.015Z,100197.56
2022-11-01T19:47:58.063Z,100209.72
2022-11-01T19:50:32.611Z,100205.19
2022-11-01T19:53:00.692Z,100206.84
2022-11-01T19:55:52.107Z,100205.78
2022-11-01T19:58:26.905Z,100198.34
2022-11-01T20:01:14.926Z,100199.59
2022-11-01T20:03:46.091Z,100204.56
2022-11-01T20:06:17.088Z,100206.44
2022-11-01T20:08:46.375Z,100208.91
2022-11-01T20:11:14.370Z,100212.63
2022-11-01T20:13:43.798Z,100206.84
2022-11-01T20:16:12.543Z,100207.25
2022-11-01T20:18:41.234Z,100212.63
2022-11-01T20:21:09.522Z,100203.13
2022-11-01T20:23:39.050Z,100209.31
2022-11-01T20:26:07.136Z,100216.31
2022-11-01T20:28:35.500Z,100208.72
2022-11-01T20:31:05.339Z,100207.88
2022-11-01T20:33:48.246Z,100212.38
2022-11-01T20:36:16.440Z,100203.97
2022-11-01T20:38:44.723Z,100204.41
2022-11-01T20:41:13.077Z,100205.03
2022-11-01T20:43:42.323Z,100200.53
2022-11-01T20:46:11.802Z,100203.84
2022-11-01T20:48:39.911Z,100204.47
2022-11-01T20:51:08.165Z,100201.19
2022-11-01T20:53:36.259Z,100201.00
2022-11-01T20:56:06.554Z,100193.81
2022-11-01T20:58:39.913Z,100201.44
2022-11-01T21:01:15.754Z,100197.75
2022-11-01T21:03:44.549Z,100200.25
2022-11-01T21:06:19.601Z,100201.72
2022-11-01T21:08:49.052Z,100194.72
2022-11-01T21:11:43.965Z,100192.69
2022-11-01T21:14:16.759Z,100199.06
2022-11-01T21:16:46.428Z,100210.41
2022-11-01T21:19:20.772Z,100197.66
2022-11-01T21:21:52.431Z,100197.25
2022-11-01T21:24:35.167Z,100194.38
2022-11-01T21:27:24.274Z,100203.66
2022-11-01T21:29:53.076Z,100201.38
2022-11-01T21:32:30.191Z,100202.41
2022-11-01T21:34:59.083Z,100199.53
2022-11-01T21:37:29.814Z,100215.78
2022-11-01T21:40:15.010Z,100208.78
2022-11-01T21:42:46.671Z,100210.06
2022-11-01T21:45:31.214Z,100203.25
2022-11-01T21:48:03.902Z,100205.09
2022-11-01T21:50:32.189Z,100202.22
2022-11-01T21:53:00.412Z,100190.50
2022-11-01T21:55:29.030Z,100203.44
2022-11-01T21:57:57.455Z,100204.69
2022-11-01T22:00:25.592Z,100197.88
2022-11-01T22:02:53.527Z,100205.06
2022-11-01T22:05:23.930Z,100207.13
2022-11-01T22:07:51.953Z,100207.53
2022-11-01T22:10:19.966Z,100210.63
2022-11-01T22:12:47.994Z,100208.34
2022-11-01T22:15:16.120Z,100205.47
2022-11-01T22:17:44.059Z,100202.38
2022-11-01T22:20:12.691Z,100197.84
2022-11-01T22:22:42.129Z,100202.16
2022-11-01T22:25:11.656Z,100197.44
2022-11-01T22:27:42.744Z,100197.44
2022-11-01T22:30:12.103Z,100198.06
2022-11-01T22:32:40.066Z,100200.50
2022-11-01T22:35:08.550Z,100187.72
2022-11-01T22:37:37.122Z,100206.25
2022-11-01T22:40:12.734Z,100193.47
2022-11-01T22:42:41.816Z,100206.47
2022-11-01T22:45:15.879Z,100196.78
2022-11-01T22:47:44.207Z,100203.16
2022-11-01T22:50:14.739Z,100201.94
2022-11-01T22:52:45.193Z,100195.38
2022-11-01T22:55:24.398Z,100192.50
2022-11-01T22:57:56.501Z,100197.63
2022-11-01T23:00:30.983Z,100192.09
2022-11-01T23:03:12.154Z,100201.16
2022-11-01T23:05:40.137Z,100185.94
2022-11-01T23:08:19.272Z,100193.78
2022-11-01T23:10:52.060Z,100191.13
2022-11-01T23:13:43.118Z,100189.47
2022-11-01T23:16:24.079Z,100194.00
2022-11-01T23:18:53.234Z,100198.72
2022-11-01T23:21:23.073Z,100191.13
2022-11-01T23:23:51.278Z,100198.53
2022-11-01T23:26:21.193Z,100191.53
2022-11-01T23:28:52.669Z,100194.00
2022-11-01T23:31:22.036Z,100191.72
2022-11-01T23:33:51.313Z,100200.16
2022-11-01T23:36:24.006Z,100201.59
2022-11-01T23:38:55.533Z,100204.00
2022-11-01T23:41:29.422Z,100196.63
2022-11-01T23:44:00.179Z,100192.72
2022-11-01T23:46:28.487Z,100191.25
2022-11-01T23:49:01.544Z,100197.63
2022-11-01T23:51:32.290Z,100193.31
2022-11-01T23:54:01.176Z,100208.72
2022-11-01T23:56:31.860Z,100209.53
2022-11-01T23:59:04.088Z,100203.59
